Time,TemperatureF,DewpointF,PressureIn,WindDirection,WindDirectionDegrees,WindSpeedMPH,WindSpeedGustMPH,Humidity,HourlyPrecipIn,Conditions,Clouds,dailyrainin,SolarRadiationWatts/m^2,SoftwareType,DateUTC
2013-05-21 00:00:00,66.6,64.8,29.93,SE,128,0.0,0.0,94,0.00,,,0.00,0,Wunderground v.1.15,2013-05-21 04:00:00,
2013-05-21 00:10:00,65.8,64.0,29.93,SE,128,0.0,0.0,94,0.00,,,0.00,0,Wunderground v.1.15,2013-05-21 04:10:00,
2013-05-21 00:20:00,66.3,64.8,29.93,SE,128,0.0,0.0,95,0.00,,,0.00,0,Wunderground v.1.15,2013-05-21 04:20:00,
2013-05-21 00:30:00,66.0,64.5,29.93,SE,128,0.0,0.0,95,0.00,,,0.00,0,Wunderground v.1.15,2013-05-21 04:30:00,
2013-05-21 00:40:00,65.1,63.6,29.93,SE,128,0.0,0.0,95,0.00,,,0.00,0,Wunderground v.1.15,2013-05-21 04:40:00,
2013-05-21 00:50:00,65.2,63.7,29.93,SE,128,0.0,0.0,95,0.00,,,0.00,0,Wunderground v.1.15,2013-05-21 04:50:00,
2013-05-21 01:00:00,65.0,63.8,29.93,SE,128,0.0,0.0,96,0.00,,,0.00,0,Wunderground v.1.15,2013-05-21 05:00:00,
2013-05-21 01:10:00,65.5,64.3,29.93,SE,128,0.0,0.0,96,0.00,,,0.00,0,Wunderground v.1.15,2013-05-21 05:10:00,
2013-05-21 01:20:00,66.2,65.0,29.92,SE,128,0.0,0.0,96,0.00,,,0.00,0,Wunderground v.1.15,2013-05-21 05:20:00,
2013-05-21 01:30:00,66.0,64.8,29.92,SE,128,0.0,0.0,96,0.00,,,0.00,0,Wunderground v.1.15,2013-05-21 05:30:00,
2013-05-21 01:40:00,66.2,65.0,29.92,SE,128,0.0,0.0,96,0.00,,,0.00,0,Wunderground v.1.15,2013-05-21 05:40:00,
2013-05-21 01:50:00,66.4,65.2,29.92,SE,128,0.0,0.0,96,0.00,,,0.00,0,Wunderground v.1.15,2013-05-21 05:50:00,
2013-05-21 02:00:00,66.5,65.0,29.92,SE,128,0.0,0.0,95,0.00,,,0.00,0,Wunderground v.1.15,2013-05-21 06:00:00,
2013-05-21 02:10:00,66.1,64.3,29.92,SE,128,0.0,0.0,94,0.00,,,0.00,0,Wunderground v.1.15,2013-05-21 06:10:00,
2013-05-21 02:20:00,66.2,64.7,29.92,SE,128,0.0,0.0,95,0.00,,,0.00,0,Wunderground v.1.15,2013-05-21 06:20:00,
2013-05-21 02:30:00,66.5,64.7,29.91,South,173,0.0,0.0,94,0.00,,,0.00,0,Wunderground v.1.15,2013-05-21 06:30:00,
2013-05-21 02:40:00,66.7,64.3,29.91,South,173,0.0,0.0,92,0.00,,,0.00,0,Wunderground v.1.15,2013-05-21 06:40:00,
2013-05-21 02:50:00,66.5,63.8,29.91,South,173,0.0,0.0,91,0.00,,,0.00,0,Wunderground v.1.15,2013-05-21 06:50:00,
2013-05-21 03:00:00,66.2,63.5,29.91,South,173,0.0,0.0,91,0.00,,,0.00,0,Wunderground v.1.15,2013-05-21 07:00:00,
2013-05-21 03:10:00,66.0,63.3,29.92,South,173,0.0,0.0,91,0.00,,,0.00,0,Wunderground v.1.15,2013-05-21 07:10:00,
2013-05-21 03:19:00,65.5,63.1,29.91,South,173,0.0,0.0,92,0.00,,,0.00,0,Wunderground v.1.15,2013-05-21 07:19:00,
2013-05-21 03:30:00,65.5,63.1,29.91,South,173,0.0,0.0,92,0.00,,,0.00,0,Wunderground v.1.15,2013-05-21 07:30:00,
2013-05-21 03:40:00,65.3,62.9,29.91,South,173,0.0,1.0,92,0.00,,,0.00,0,Wunderground v.1.15,2013-05-21 07:40:00,
2013-05-21 03:50:00,65.4,63.0,29.90,South,173,0.0,0.0,92,0.00,,,0.00,0,Wunderground v.1.15,2013-05-21 07:50:00,
2013-05-21 04:00:00,65.2,62.8,29.90,South,173,0.0,0.0,92,0.00,,,0.00,0,Wunderground v.1.15,2013-05-21 08:00:00,
2013-05-21 04:10:00,65.1,62.7,29.90,South,173,0.0,0.0,92,0.00,,,0.00,0,Wunderground v.1.15,2013-05-21 08:10:00,
2013-05-21 04:20:00,65.0,62.6,29.91,South,173,0.0,0.0,92,0.00,,,0.00,0,Wunderground v.1.15,2013-05-21 08:20:00,
2013-05-21 04:30:00,64.5,62.4,29.92,South,173,0.0,0.0,93,0.00,,,0.00,0,Wunderground v.1.15,2013-05-21 08:30:00,
2013-05-21 04:40:00,64.4,62.3,29.91,South,173,0.0,0.0,93,0.00,,,0.00,0,Wunderground v.1.15,2013-05-21 08:40:00,
2013-05-21 04:50:00,64.3,62.2,29.91,South,173,0.0,0.0,93,0.00,,,0.00,0,Wunderground v.1.15,2013-05-21 08:50:00,
2013-05-21 05:00:00,64.8,63.0,29.92,South,173,0.0,0.0,94,0.00,,,0.00,0,Wunderground v.1.15,2013-05-21 09:00:00,
2013-05-21 05:10:00,65.0,62.9,29.92,South,173,0.0,0.0,93,0.00,,,0.00,0,Wunderground v.1.15,2013-05-21 09:10:00,
2013-05-21 05:20:00,65.0,62.9,29.92,South,175,0.0,2.0,93,0.00,,,0.00,0,Wunderground v.1.15,2013-05-21 09:20:00,
2013-05-21 05:30:00,64.8,62.7,29.92,South,185,0.0,0.0,93,0.00,,,0.00,0,Wunderground v.1.15,2013-05-21 09:30:00,
2013-05-21 05:40:00,64.7,62.6,29.93,South,185,0.0,0.0,93,0.00,,,0.00,0,Wunderground v.1.15,2013-05-21 09:40:00,
2013-05-21 05:50:00,64.5,62.4,29.93,South,185,0.0,0.0,93,0.00,,,0.00,0,Wunderground v.1.15,2013-05-21 09:50:00,
2013-05-21 06:00:00,64.0,61.9,29.94,South,185,0.0,0.0,93,0.00,,,0.00,5,Wunderground v.1.15,2013-05-21 10:00:00,
2013-05-21 06:10:00,64.3,62.5,29.94,South,185,0.0,0.0,94,0.00,,,0.00,11,Wunderground v.1.15,2013-05-21 10:10:00,
2013-05-21 06:20:00,63.9,62.1,29.95,South,185,0.0,0.0,94,0.00,,,0.00,12,Wunderground v.1.15,2013-05-21 10:20:00,
2013-05-21 06:30:00,63.6,61.8,29.95,South,185,0.0,0.0,94,0.00,,,0.00,21,Wunderground v.1.15,2013-05-21 10:30:00,
2013-05-21 06:40:00,63.6,62.1,29.94,South,185,0.0,0.0,95,0.00,,,0.00,37,Wunderground v.1.15,2013-05-21 10:40:00,
2013-05-21 06:50:00,64.5,63.0,29.94,South,185,0.0,0.0,95,0.00,,,0.00,81,Wunderground v.1.15,2013-05-21 10:50:00,
2013-05-21 07:00:00,65.4,63.6,29.95,South,185,0.0,0.0,94,0.00,,,0.00,109,Wunderground v.1.15,2013-05-21 11:00:00,
2013-05-21 07:10:00,66.3,64.2,29.95,South,185,0.0,0.0,93,0.00,,,0.00,139,Wunderground v.1.15,2013-05-21 11:10:00,
2013-05-21 07:20:00,66.9,64.5,29.94,SSE,163,0.0,0.0,92,0.00,,,0.00,162,Wunderground v.1.15,2013-05-21 11:20:00,
2013-05-21 07:30:00,67.6,64.9,29.94,SSE,163,0.0,1.0,91,0.00,,,0.00,204,Wunderground v.1.15,2013-05-21 11:30:00,
2013-05-21 07:40:00,68.0,65.0,29.94,WSW,249,0.0,3.0,90,0.00,,,0.00,214,Wunderground v.1.15,2013-05-21 11:40:00,
2013-05-21 07:50:00,68.8,65.4,29.94,WSW,250,1.0,1.0,89,0.00,,,0.00,163,Wunderground v.1.15,2013-05-21 11:50:00,
2013-05-21 08:00:00,69.1,65.4,29.95,WSW,245,0.0,0.0,88,0.00,,,0.00,288,Wunderground v.1.15,2013-05-21 12:00:00,
2013-05-21 08:10:00,69.2,65.5,29.95,SE,131,0.0,0.0,88,0.00,,,0.00,271,Wunderground v.1.15,2013-05-21 12:10:00,
2013-05-21 08:20:00,70.4,66.3,29.95,SSE,149,0.0,0.0,87,0.00,,,0.00,179,Wunderground v.1.15,2013-05-21 12:20:00,
2013-05-21 08:30:00,70.2,66.1,29.95,SSE,157,1.0,1.0,87,0.00,,,0.00,165,Wunderground v.1.15,2013-05-21 12:30:00,
2013-05-21 08:40:00,71.0,66.9,29.96,SSE,149,1.0,3.0,87,0.00,,,0.00,432,Wunderground v.1.15,2013-05-21 12:40:00,
2013-05-21 08:50:00,71.4,67.3,29.95,SSE,149,1.0,1.0,87,0.00,,,0.00,450,Wunderground v.1.15,2013-05-21 12:50:00,
2013-05-21 09:00:00,72.1,67.3,29.94,SE,133,1.0,4.0,85,0.00,,,0.00,478,Wunderground v.1.15,2013-05-21 13:00:00,
2013-05-21 09:10:00,73.3,68.2,29.94,SW,221,1.0,1.0,84,0.00,,,0.00,512,Wunderground v.1.15,2013-05-21 13:10:00,
2013-05-21 09:20:00,73.9,68.4,29.94,SSE,155,1.0,3.0,83,0.00,,,0.00,543,Wunderground v.1.15,2013-05-21 13:20:00,
2013-05-21 09:30:00,74.4,68.2,29.94,WSW,246,1.0,5.0,81,0.00,,,0.00,570,Wunderground v.1.15,2013-05-21 13:30:00,
2013-05-21 09:40:00,74.9,67.9,29.94,SW,215,2.0,2.0,79,0.00,,,0.00,599,Wunderground v.1.15,2013-05-21 13:40:00,
2013-05-21 09:50:00,75.3,68.3,29.94,SW,228,1.0,3.0,79,0.00,,,0.00,628,Wunderground v.1.15,2013-05-21 13:50:00,
2013-05-21 10:00:00,76.3,69.7,29.94,SW,215,1.0,1.0,80,0.00,,,0.00,654,Wunderground v.1.15,2013-05-21 14:00:00,
2013-05-21 10:10:00,77.1,69.3,29.94,SE,146,1.0,3.0,77,0.00,,,0.00,682,Wunderground v.1.15,2013-05-21 14:10:00,
2013-05-21 10:20:00,77.5,70.5,29.94,SSE,157,1.0,1.0,79,0.00,,,0.00,703,Wunderground v.1.15,2013-05-21 14:20:00,
2013-05-21 10:30:00,78.3,69.7,29.94,South,180,1.0,1.0,75,0.00,,,0.00,729,Wunderground v.1.15,2013-05-21 14:30:00,
2013-05-21 10:40:00,78.7,70.9,29.93,WSW,244,1.0,1.0,77,0.00,,,0.00,751,Wunderground v.1.15,2013-05-21 14:40:00,
2013-05-21 10:50:00,78.5,69.9,29.94,SE,144,2.0,2.0,75,0.00,,,0.00,766,Wunderground v.1.15,2013-05-21 14:50:00,
2013-05-21 11:00:00,79.0,69.2,29.93,ESE,105,0.0,0.0,72,0.00,,,0.00,782,Wunderground v.1.15,2013-05-21 15:00:00,
2013-05-21 11:10:00,79.7,70.3,29.93,SSE,166,1.0,1.0,73,0.00,,,0.00,814,Wunderground v.1.15,2013-05-21 15:10:00,
2013-05-21 11:19:00,80.1,70.7,29.93,ESE,106,1.0,1.0,73,0.00,,,0.00,819,Wunderground v.1.15,2013-05-21 15:19:00,
2013-05-21 11:30:00,80.5,71.4,29.93,SSW,211,0.0,3.0,74,0.00,,,0.00,842,Wunderground v.1.15,2013-05-21 15:30:00,
2013-05-21 11:40:00,80.5,71.4,29.93,ESE,122,1.0,3.0,74,0.00,,,0.00,849,Wunderground v.1.15,2013-05-21 15:40:00,
2013-05-21 11:50:00,81.1,70.4,29.93,ESE,111,1.0,1.0,70,0.00,,,0.00,861,Wunderground v.1.15,2013-05-21 15:50:00,
2013-05-21 12:00:00,81.6,71.7,29.92,SW,220,0.0,1.0,72,0.00,,,0.00,879,Wunderground v.1.15,2013-05-21 16:00:00,
2013-05-21 12:10:00,81.6,70.4,29.92,SSW,192,1.0,1.0,69,0.00,,,0.00,888,Wunderground v.1.15,2013-05-21 16:10:00,
2013-05-21 12:20:00,82.1,73.0,29.92,ESE,123,1.0,1.0,74,0.00,,,0.00,893,Wunderground v.1.15,2013-05-21 16:20:00,
2013-05-21 12:30:00,82.4,71.2,29.92,WSW,242,0.0,2.0,69,0.00,,,0.00,891,Wunderground v.1.15,2013-05-21 16:30:00,
2013-05-21 12:40:00,83.5,70.9,29.92,West,278,1.0,1.0,66,0.00,,,0.00,907,Wunderground v.1.15,2013-05-21 16:40:00,
2013-05-21 12:50:00,83.3,70.8,29.91,SSE,153,1.0,1.0,66,0.00,,,0.00,909,Wunderground v.1.15,2013-05-21 16:50:00,
2013-05-21 13:00:00,83.8,73.4,29.91,SE,142,1.0,3.0,71,0.00,,,0.00,918,Wunderground v.1.15,2013-05-21 17:00:00,
2013-05-21 13:10:00,83.8,72.1,29.90,SE,128,2.0,4.0,68,0.00,,,0.00,921,Wunderground v.1.15,2013-05-21 17:10:00,
2013-05-21 13:20:00,83.9,70.9,29.90,SE,136,1.0,1.0,65,0.00,,,0.00,930,Wunderground v.1.15,2013-05-21 17:20:00,
2013-05-21 13:30:00,84.9,73.6,29.89,SE,142,2.0,2.0,69,0.00,,,0.00,930,Wunderground v.1.15,2013-05-21 17:30:00,
2013-05-21 13:40:00,84.7,71.6,29.89,SE,141,3.0,3.0,65,0.00,,,0.00,912,Wunderground v.1.15,2013-05-21 17:40:00,
2013-05-21 13:50:00,85.1,71.1,29.88,ESE,114,2.0,7.0,63,0.00,,,0.00,926,Wunderground v.1.15,2013-05-21 17:50:00,
2013-05-21 14:00:00,85.3,70.8,29.87,ESE,107,2.0,2.0,62,0.00,,,0.00,893,Wunderground v.1.15,2013-05-21 18:00:00,
2013-05-21 14:10:00,85.7,71.7,29.87,SE,144,2.0,2.0,63,0.00,,,0.00,909,Wunderground v.1.15,2013-05-21 18:10:00,
2013-05-21 14:20:00,86.0,71.9,29.87,SE,136,2.0,5.0,63,0.00,,,0.00,889,Wunderground v.1.15,2013-05-21 18:20:00,
2013-05-21 14:30:00,86.0,71.0,29.86,ESE,120,1.0,1.0,61,0.00,,,0.00,877,Wunderground v.1.15,2013-05-21 18:30:00,
2013-05-21 14:40:00,86.3,70.8,29.86,SSE,149,3.0,5.0,60,0.00,,,0.00,868,Wunderground v.1.15,2013-05-21 18:40:00,
2013-05-21 14:50:00,85.9,71.8,29.86,East,92,2.0,2.0,63,0.00,,,0.00,844,Wunderground v.1.15,2013-05-21 18:50:00,
2013-05-21 15:00:00,87.4,70.8,29.86,SSE,163,1.0,2.0,58,0.00,,,0.00,854,Wunderground v.1.15,2013-05-21 19:00:00,
2013-05-21 15:10:00,86.8,72.7,29.86,SE,134,2.0,2.0,63,0.00,,,0.00,884,Wunderground v.1.15,2013-05-21 19:10:00,
2013-05-21 15:20:00,86.5,71.0,29.85,SE,142,3.0,3.0,60,0.00,,,0.00,788,Wunderground v.1.15,2013-05-21 19:20:00,
2013-05-21 15:30:00,86.8,72.7,29.85,SSE,159,2.0,2.0,63,0.00,,,0.00,784,Wunderground v.1.15,2013-05-21 19:30:00,
2013-05-21 15:40:00,86.8,72.7,29.85,SE,144,4.0,4.0,63,0.00,,,0.00,784,Wunderground v.1.15,2013-05-21 19:40:00,
2013-05-21 15:50:00,86.5,73.3,29.85,SE,139,2.0,7.0,65,0.00,,,0.00,719,Wunderground v.1.15,2013-05-21 19:50:00,
2013-05-21 16:00:00,86.2,73.5,29.84,SE,138,4.0,4.0,66,0.00,,,0.00,717,Wunderground v.1.15,2013-05-21 20:00:00,
2013-05-21 16:10:00,86.4,72.3,29.83,ESE,122,4.0,6.0,63,0.00,,,0.00,682,Wunderground v.1.15,2013-05-21 20:10:00,
2013-05-21 16:20:00,86.3,73.1,29.83,SE,138,4.0,4.0,65,0.00,,,0.00,605,Wunderground v.1.15,2013-05-21 20:20:00,
2013-05-21 16:30:00,86.3,73.6,29.83,SSE,166,3.0,3.0,66,0.00,,,0.00,424,Wunderground v.1.15,2013-05-21 20:30:00,
2013-05-21 16:40:00,85.9,73.2,29.83,SSE,152,5.0,5.0,66,0.00,,,0.00,506,Wunderground v.1.15,2013-05-21 20:40:00,
2013-05-21 16:50:00,86.0,72.4,29.83,SE,139,3.0,10.0,64,0.00,,,0.00,466,Wunderground v.1.15,2013-05-21 20:50:00,
2013-05-21 17:00:00,86.1,73.0,29.83,South,176,3.0,3.0,65,0.00,,,0.00,504,Wunderground v.1.15,2013-05-21 21:00:00,
2013-05-21 17:10:00,86.2,72.6,29.83,SSE,163,2.0,2.0,64,0.00,,,0.00,443,Wunderground v.1.15,2013-05-21 21:10:00,
2013-05-21 17:19:00,86.2,72.6,29.82,South,170,2.0,2.0,64,0.00,,,0.00,480,Wunderground v.1.15,2013-05-21 21:19:00,
2013-05-21 17:30:00,86.0,72.9,29.82,SE,146,3.0,3.0,65,0.00,,,0.00,487,Wunderground v.1.15,2013-05-21 21:30:00,
2013-05-21 17:40:00,85.7,72.6,29.83,SSE,160,3.0,3.0,65,0.00,,,0.00,457,Wunderground v.1.15,2013-05-21 21:40:00,
2013-05-21 17:50:00,85.7,73.0,29.82,South,169,1.0,3.0,66,0.00,,,0.00,408,Wunderground v.1.15,2013-05-21 21:50:00,
2013-05-21 18:00:00,85.5,72.8,29.82,SSE,159,2.0,2.0,66,0.00,,,0.00,193,Wunderground v.1.15,2013-05-21 22:00:00,
2013-05-21 18:10:00,84.7,72.1,29.81,SSE,149,1.0,1.0,66,0.00,,,0.00,199,Wunderground v.1.15,2013-05-21 22:10:00,
2013-05-21 18:20:00,83.9,72.2,29.82,South,169,2.0,2.0,68,0.00,,,0.00,125,Wunderground v.1.15,2013-05-21 22:20:00,
2013-05-21 18:30:00,83.7,72.4,29.82,SSE,150,1.0,4.0,69,0.00,,,0.00,304,Wunderground v.1.15,2013-05-21 22:30:00,
2013-05-21 18:40:00,83.9,72.6,29.81,SSE,155,1.0,1.0,69,0.00,,,0.00,185,Wunderground v.1.15,2013-05-21 22:40:00,
2013-05-21 18:50:00,83.5,72.3,29.82,SSE,167,1.0,5.0,69,0.00,,,0.00,163,Wunderground v.1.15,2013-05-21 22:50:00,
2013-05-21 19:00:00,82.9,71.7,29.82,SSE,168,1.0,1.0,69,0.00,,,0.00,114,Wunderground v.1.15,2013-05-21 23:00:00,
2013-05-21 19:10:00,82.3,71.5,29.82,SSE,159,1.0,1.0,70,0.00,,,0.00,77,Wunderground v.1.15,2013-05-21 23:10:00,
2013-05-21 19:20:00,81.7,71.8,29.82,SSE,165,1.0,1.0,72,0.00,,,0.00,58,Wunderground v.1.15,2013-05-21 23:20:00,
2013-05-21 19:30:00,81.1,71.6,29.81,South,177,3.0,4.0,73,0.00,,,0.00,42,Wunderground v.1.15,2013-05-21 23:30:00,
2013-05-21 19:40:00,80.6,71.5,29.81,SSE,165,1.0,3.0,74,0.00,,,0.00,33,Wunderground v.1.15,2013-05-21 23:40:00,
2013-05-21 19:50:00,80.2,71.2,29.82,SE,142,2.0,5.0,74,0.00,,,0.00,23,Wunderground v.1.15,2013-05-21 23:50:00,
2013-05-21 20:00:00,79.6,71.0,29.81,SE,138,2.0,3.0,75,0.00,,,0.00,12,Wunderground v.1.15,2013-05-22 00:00:00,
2013-05-21 20:10:00,79.1,70.9,29.81,SSE,150,2.0,2.0,76,0.00,,,0.00,5,Wunderground v.1.15,2013-05-22 00:10:00,
2013-05-21 20:20:00,79.0,70.8,29.82,SSE,148,0.0,0.0,76,0.00,,,0.00,0,Wunderground v.1.15,2013-05-22 00:20:00,
2013-05-21 20:30:00,78.4,71.0,29.81,SSE,153,1.0,2.0,78,0.00,,,0.00,0,Wunderground v.1.15,2013-05-22 00:30:00,
2013-05-21 20:40:00,78.1,70.7,29.82,SSW,200,0.0,0.0,78,0.00,,,0.00,0,Wunderground v.1.15,2013-05-22 00:40:00,
2013-05-21 20:50:00,77.6,70.6,29.82,SE,144,0.0,0.0,79,0.00,,,0.00,0,Wunderground v.1.15,2013-05-22 00:50:00,
2013-05-21 21:00:00,77.4,70.4,29.82,SE,144,0.0,0.0,79,0.00,,,0.00,0,Wunderground v.1.15,2013-05-22 01:00:00,
2013-05-21 21:10:00,77.0,70.4,29.82,SE,144,0.0,0.0,80,0.00,,,0.00,0,Wunderground v.1.15,2013-05-22 01:10:00,
2013-05-21 21:20:00,76.6,70.3,29.82,SE,145,0.0,3.0,81,0.00,,,0.00,0,Wunderground v.1.15,2013-05-22 01:20:00,
2013-05-21 21:30:00,75.8,69.9,29.82,SSE,155,0.0,0.0,82,0.00,,,0.00,0,Wunderground v.1.15,2013-05-22 01:30:00,
2013-05-21 21:40:00,75.8,70.3,29.82,SSE,157,0.0,0.0,83,0.00,,,0.00,0,Wunderground v.1.15,2013-05-22 01:40:00,
2013-05-21 21:50:00,76.0,70.1,29.83,SSE,166,0.0,0.0,82,0.00,,,0.00,0,Wunderground v.1.15,2013-05-22 01:50:00,
2013-05-21 22:00:00,75.7,70.2,29.83,SSE,166,0.0,0.0,83,0.00,,,0.00,0,Wunderground v.1.15,2013-05-22 02:00:00,
2013-05-21 22:10:00,75.3,70.1,29.84,SSE,166,0.0,0.0,84,0.00,,,0.00,0,Wunderground v.1.15,2013-05-22 02:10:00,
2013-05-21 22:20:00,74.9,69.7,29.84,SSE,166,0.0,0.0,84,0.00,,,0.00,0,Wunderground v.1.15,2013-05-22 02:20:00,
2013-05-21 22:30:00,74.2,69.4,29.84,SSE,166,0.0,0.0,85,0.00,,,0.00,0,Wunderground v.1.15,2013-05-22 02:30:00,
2013-05-21 22:40:00,73.2,69.4,29.84,SSE,166,0.0,0.0,88,0.00,,,0.00,0,Wunderground v.1.15,2013-05-22 02:40:00,
2013-05-21 22:50:00,73.0,69.2,29.83,SSE,166,0.0,0.0,88,0.00,,,0.00,0,Wunderground v.1.15,2013-05-22 02:50:00,
2013-05-21 22:59:00,72.7,69.3,29.83,SSE,166,0.0,0.0,89,0.00,,,0.00,0,Wunderground v.1.15,2013-05-22 02:59:00,
2013-05-21 23:10:00,72.4,69.0,29.83,SSE,166,0.0,0.0,89,0.00,,,0.00,0,Wunderground v.1.15,2013-05-22 03:10:00,
2013-05-21 23:20:00,71.8,68.7,29.84,SSE,166,0.0,0.0,90,0.00,,,0.00,0,Wunderground v.1.15,2013-05-22 03:20:00,
2013-05-21 23:30:00,71.1,68.3,29.84,SSE,166,0.0,0.0,91,0.00,,,0.00,0,Wunderground v.1.15,2013-05-22 03:30:00,
2013-05-21 23:40:00,70.7,68.3,29.84,SSE,166,0.0,0.0,92,0.00,,,0.00,0,Wunderground v.1.15,2013-05-22 03:40:00,
2013-05-21 23:50:00,70.5,68.1,29.83,SSE,166,0.0,0.0,92,0.00,,,0.00,0,Wunderground v.1.15,2013-05-22 03:50:00,